sensor_id;sensor_type;location;lat;lon;timestamp;temperature;humidity
72952;HTU21D;61102;51.956;5.878;2022-09-19T00:01:16;13.33;66.94
72952;HTU21D;61102;51.956;5.878;2022-09-19T00:03:45;13.31;66.81
72952;HTU21D;61102;51.956;5.878;2022-09-19T00:06:13;13.32;66.76
72952;HTU21D;61102;51.956;5.878;2022-09-19T00:08:42;13.33;66.66
72952;HTU21D;61102;51.956;5.878;2022-09-19T00:11:10;13.31;66.62
72952;HTU21D;61102;51.956;5.878;2022-09-19T00:13:38;13.32;66.54
72952;HTU21D;61102;51.956;5.878;2022-09-19T00:16:07;13.34;66.50
72952;HTU21D;61102;51.956;5.878;2022-09-19T00:18:33;13.30;66.50
72952;HTU21D;61102;51.956;5.878;2022-09-19T00:20:59;13.30;66.46
72952;HTU21D;61102;51.956;5.878;2022-09-19T00:23:27;13.26;66.46
72952;HTU21D;61102;51.956;5.878;2022-09-19T00:26:13;13.24;66.39
72952;HTU21D;61102;51.956;5.878;2022-09-19T00:28:44;13.22;66.45
72952;HTU21D;61102;51.956;5.878;2022-09-19T00:31:16;13.24;66.56
72952;HTU21D;61102;51.956;5.878;2022-09-19T00:33:44;13.21;66.42
72952;HTU21D;61102;51.956;5.878;2022-09-19T00:36:13;13.20;66.38
72952;HTU21D;61102;51.956;5.878;2022-09-19T00:38:40;13.21;66.39
72952;HTU21D;61102;51.956;5.878;2022-09-19T00:41:06;13.22;66.30
72952;HTU21D;61102;51.956;5.878;2022-09-19T00:46:14;13.21;66.31
72952;HTU21D;61102;51.956;5.878;2022-09-19T00:48:41;13.18;66.40
72952;HTU21D;61102;51.956;5.878;2022-09-19T00:51:12;13.18;66.49
72952;HTU21D;61102;51.956;5.878;2022-09-19T00:53:39;13.20;66.41
72952;HTU21D;61102;51.956;5.878;2022-09-19T00:56:07;13.21;66.41
72952;HTU21D;61102;51.956;5.878;2022-09-19T00:58:37;13.20;66.59
72952;HTU21D;61102;51.956;5.878;2022-09-19T01:01:04;13.23;66.31
72952;HTU21D;61102;51.956;5.878;2022-09-19T01:03:31;13.23;66.38
72952;HTU21D;61102;51.956;5.878;2022-09-19T01:06:12;13.25;66.62
72952;HTU21D;61102;51.956;5.878;2022-09-19T01:08:54;13.29;66.28
72952;HTU21D;61102;51.956;5.878;2022-09-19T01:11:27;13.30;66.33
72952;HTU21D;61102;51.956;5.878;2022-09-19T01:14:13;13.35;66.54
72952;HTU21D;61102;51.956;5.878;2022-09-19T01:16:48;13.44;66.85
72952;HTU21D;61102;51.956;5.878;2022-09-19T01:27:23;13.66;67.15
72952;HTU21D;61102;51.956;5.878;2022-09-19T01:30:09;13.74;67.14
72952;HTU21D;61102;51.956;5.878;2022-09-19T01:32:52;13.75;67.23
72952;HTU21D;61102;51.956;5.878;2022-09-19T01:35:27;13.81;67.43
72952;HTU21D;61102;51.956;5.878;2022-09-19T01:38:07;13.84;67.58
72952;HTU21D;61102;51.956;5.878;2022-09-19T01:40:37;13.83;67.43
72952;HTU21D;61102;51.956;5.878;2022-09-19T01:43:12;13.85;67.65
72952;HTU21D;61102;51.956;5.878;2022-09-19T01:45:38;13.84;67.42
72952;HTU21D;61102;51.956;5.878;2022-09-19T01:50:48;13.79;67.47
72952;HTU21D;61102;51.956;5.878;2022-09-19T01:56:28;13.74;66.98
72952;HTU21D;61102;51.956;5.878;2022-09-19T02:04:57;13.55;66.80
72952;HTU21D;61102;51.956;5.878;2022-09-19T02:07:41;13.49;66.50
72952;HTU21D;61102;51.956;5.878;2022-09-19T02:10:20;13.48;66.66
72952;HTU21D;61102;51.956;5.878;2022-09-19T02:12:50;13.44;66.70
72952;HTU21D;61102;51.956;5.878;2022-09-19T02:15:36;13.45;66.54
72952;HTU21D;61102;51.956;5.878;2022-09-19T02:18:15;13.47;66.75
72952;HTU21D;61102;51.956;5.878;2022-09-19T02:20:55;13.47;66.67
72952;HTU21D;61102;51.956;5.878;2022-09-19T02:23:27;13.49;66.58
72952;HTU21D;61102;51.956;5.878;2022-09-19T02:25:57;13.48;66.49
72952;HTU21D;61102;51.956;5.878;2022-09-19T02:28:35;13.50;66.66
72952;HTU21D;61102;51.956;5.878;2022-09-19T02:31:05;13.51;66.47
72952;HTU21D;61102;51.956;5.878;2022-09-19T02:33:37;13.51;66.52
72952;HTU21D;61102;51.956;5.878;2022-09-19T02:36:14;13.53;66.58
72952;HTU21D;61102;51.956;5.878;2022-09-19T02:38:54;13.54;66.48
72952;HTU21D;61102;51.956;5.878;2022-09-19T02:41:48;13.56;66.42
72952;HTU21D;61102;51.956;5.878;2022-09-19T02:49:38;13.63;66.62
72952;HTU21D;61102;51.956;5.878;2022-09-19T02:52:15;13.64;66.55
72952;HTU21D;61102;51.956;5.878;2022-09-19T02:54:54;13.68;66.53
72952;HTU21D;61102;51.956;5.878;2022-09-19T02:57:24;13.66;66.43
72952;HTU21D;61102;51.956;5.878;2022-09-19T02:59:54;13.66;66.58
72952;HTU21D;61102;51.956;5.878;2022-09-19T03:02:29;13.69;66.79
72952;HTU21D;61102;51.956;5.878;2022-09-19T03:05:09;13.81;67.12
72952;HTU21D;61102;51.956;5.878;2022-09-19T03:07:40;13.86;66.91
72952;HTU21D;61102;51.956;5.878;2022-09-19T03:10:17;13.93;66.87
72952;HTU21D;61102;51.956;5.878;2022-09-19T03:13:08;13.99;66.92
72952;HTU21D;61102;51.956;5.878;2022-09-19T03:16:24;14.00;67.01
72952;HTU21D;61102;51.956;5.878;2022-09-19T03:18:32;14.10;66.93
72952;HTU21D;61102;51.956;5.878;2022-09-19T03:21:03;14.13;67.26
72952;HTU21D;61102;51.956;5.878;2022-09-19T03:23:40;14.20;67.32
72952;HTU21D;61102;51.956;5.878;2022-09-19T03:26:09;14.19;67.10
72952;HTU21D;61102;51.956;5.878;2022-09-19T03:28:36;14.20;66.98
72952;HTU21D;61102;51.956;5.878;2022-09-19T03:31:03;14.21;66.85
72952;HTU21D;61102;51.956;5.878;2022-09-19T03:33:30;14.19;66.74
72952;HTU21D;61102;51.956;5.878;2022-09-19T03:36:00;14.17;66.66
72952;HTU21D;61102;51.956;5.878;2022-09-19T03:38:37;14.10;66.56
72952;HTU21D;61102;51.956;5.878;2022-09-19T03:41:11;14.07;66.43
72952;HTU21D;61102;51.956;5.878;2022-09-19T03:43:38;14.04;66.37
72952;HTU21D;61102;51.956;5.878;2022-09-19T03:46:04;14.00;66.36
72952;HTU21D;61102;51.956;5.878;2022-09-19T03:48:31;13.97;66.43
72952;HTU21D;61102;51.956;5.878;2022-09-19T03:50:58;13.96;66.39
72952;HTU21D;61102;51.956;5.878;2022-09-19T03:53:28;13.93;66.36
72952;HTU21D;61102;51.956;5.878;2022-09-19T03:55:54;13.93;66.33
72952;HTU21D;61102;51.956;5.878;2022-09-19T03:58:21;13.91;66.26
72952;HTU21D;61102;51.956;5.878;2022-09-19T04:00:49;13.86;66.27
72952;HTU21D;61102;51.956;5.878;2022-09-19T04:03:16;13.83;66.37
72952;HTU21D;61102;51.956;5.878;2022-09-19T04:05:53;13.86;66.51
72952;HTU21D;61102;51.956;5.878;2022-09-19T04:08:22;13.85;66.32
72952;HTU21D;61102;51.956;5.878;2022-09-19T04:10:49;13.86;66.43
72952;HTU21D;61102;51.956;5.878;2022-09-19T04:13:17;13.86;66.40
72952;HTU21D;61102;51.956;5.878;2022-09-19T04:15:47;13.90;66.48
72952;HTU21D;61102;51.956;5.878;2022-09-19T04:18:15;13.93;66.55
72952;HTU21D;61102;51.956;5.878;2022-09-19T04:20:42;13.97;66.60
72952;HTU21D;61102;51.956;5.878;2022-09-19T04:23:24;14.04;66.62
72952;HTU21D;61102;51.956;5.878;2022-09-19T04:26:11;14.06;66.64
72952;HTU21D;61102;51.956;5.878;2022-09-19T04:28:40;14.11;66.71
72952;HTU21D;61102;51.956;5.878;2022-09-19T04:31:10;14.13;66.85
72952;HTU21D;61102;51.956;5.878;2022-09-19T04:33:39;14.18;66.77
72952;HTU21D;61102;51.956;5.878;2022-09-19T04:36:07;14.21;66.75
72952;HTU21D;61102;51.956;5.878;2022-09-19T04:38:35;14.23;66.92
72952;HTU21D;61102;51.956;5.878;2022-09-19T04:41:08;14.29;66.91
72952;HTU21D;61102;51.956;5.878;2022-09-19T04:43:35;14.33;67.02
72952;HTU21D;61102;51.956;5.878;2022-09-19T04:46:40;14.43;66.91
72952;HTU21D;61102;51.956;5.878;2022-09-19T04:49:09;14.44;67.00
72952;HTU21D;61102;51.956;5.878;2022-09-19T04:51:37;14.48;67.10
72952;HTU21D;61102;51.956;5.878;2022-09-19T04:54:03;14.52;67.20
72952;HTU21D;61102;51.956;5.878;2022-09-19T04:56:31;14.57;67.24
72952;HTU21D;61102;51.956;5.878;2022-09-19T04:58:58;14.59;67.19
72952;HTU21D;61102;51.956;5.878;2022-09-19T05:01:29;14.59;67.05
72952;HTU21D;61102;51.956;5.878;2022-09-19T05:03:58;14.57;66.87
72952;HTU21D;61102;51.956;5.878;2022-09-19T05:06:25;14.53;66.76
72952;HTU21D;61102;51.956;5.878;2022-09-19T05:08:55;14.49;66.69
72952;HTU21D;61102;51.956;5.878;2022-09-19T05:11:31;14.44;66.59
72952;HTU21D;61102;51.956;5.878;2022-09-19T05:17:06;14.41;66.58
72952;HTU21D;61102;51.956;5.878;2022-09-19T05:19:35;14.37;66.69
72952;HTU21D;61102;51.956;5.878;2022-09-19T05:22:04;14.38;66.80
72952;HTU21D;61102;51.956;5.878;2022-09-19T05:24:31;14.41;66.95
72952;HTU21D;61102;51.956;5.878;2022-09-19T05:26:58;14.47;67.07
72952;HTU21D;61102;51.956;5.878;2022-09-19T05:29:26;14.51;67.12
72952;HTU21D;61102;51.956;5.878;2022-09-19T05:32:03;14.58;67.21
72952;HTU21D;61102;51.956;5.878;2022-09-19T05:34:39;14.65;67.02
72952;HTU21D;61102;51.956;5.878;2022-09-19T05:37:09;14.67;66.89
72952;HTU21D;61102;51.956;5.878;2022-09-19T05:39:56;14.68;66.62
72952;HTU21D;61102;51.956;5.878;2022-09-19T05:42:41;14.66;66.85
72952;HTU21D;61102;51.956;5.878;2022-09-19T05:45:09;14.68;66.68
72952;HTU21D;61102;51.956;5.878;2022-09-19T05:47:37;14.72;66.68
72952;HTU21D;61102;51.956;5.878;2022-09-19T05:50:11;14.75;66.85
72952;HTU21D;61102;51.956;5.878;2022-09-19T05:52:39;14.81;67.07
72952;HTU21D;61102;51.956;5.878;2022-09-19T05:55:26;14.91;67.30
72952;HTU21D;61102;51.956;5.878;2022-09-19T05:58:08;15.02;67.33
72952;HTU21D;61102;51.956;5.878;2022-09-19T06:00:36;15.10;67.45
72952;HTU21D;61102;51.956;5.878;2022-09-19T06:03:06;15.14;67.49
72952;HTU21D;61102;51.956;5.878;2022-09-19T06:05:40;15.25;67.61
72952;HTU21D;61102;51.956;5.878;2022-09-19T06:08:10;15.30;67.33
72952;HTU21D;61102;51.956;5.878;2022-09-19T06:10:39;15.32;67.31
72952;HTU21D;61102;51.956;5.878;2022-09-19T06:13:10;15.37;67.16
72952;HTU21D;61102;51.956;5.878;2022-09-19T06:15:36;15.40;67.06
72952;HTU21D;61102;51.956;5.878;2022-09-19T06:18:04;15.38;66.98
72952;HTU21D;61102;51.956;5.878;2022-09-19T06:20:43;15.37;66.94
72952;HTU21D;61102;51.956;5.878;2022-09-19T06:23:15;15.38;66.79
72952;HTU21D;61102;51.956;5.878;2022-09-19T06:25:42;15.36;66.73
72952;HTU21D;61102;51.956;5.878;2022-09-19T06:28:12;15.32;66.98
72952;HTU21D;61102;51.956;5.878;2022-09-19T06:31:01;15.38;66.74
72952;HTU21D;61102;51.956;5.878;2022-09-19T06:33:41;15.37;66.56
72952;HTU21D;61102;51.956;5.878;2022-09-19T06:36:16;15.37;66.40
72952;HTU21D;61102;51.956;5.878;2022-09-19T06:38:43;15.34;66.40
72952;HTU21D;61102;51.956;5.878;2022-09-19T06:41:29;15.36;66.27
72952;HTU21D;61102;51.956;5.878;2022-09-19T06:44:08;15.34;66.30
72952;HTU21D;61102;51.956;5.878;2022-09-19T06:46:59;15.33;66.18
72952;HTU21D;61102;51.956;5.878;2022-09-19T06:49:32;15.75;64.88
72952;HTU21D;61102;51.956;5.878;2022-09-19T06:52:14;15.39;65.69
72952;HTU21D;61102;51.956;5.878;2022-09-19T06:54:48;15.33;66.10
72952;HTU21D;61102;51.956;5.878;2022-09-19T06:57:15;15.37;66.26
72952;HTU21D;61102;51.956;5.878;2022-09-19T06:59:44;15.45;66.26
72952;HTU21D;61102;51.956;5.878;2022-09-19T07:02:11;15.54;66.26
72952;HTU21D;61102;51.956;5.878;2022-09-19T07:04:39;15.62;66.31
72952;HTU21D;61102;51.956;5.878;2022-09-19T07:07:29;15.78;66.22
72952;HTU21D;61102;51.956;5.878;2022-09-19T07:09:58;15.86;66.30
72952;HTU21D;61102;51.956;5.878;2022-09-19T07:12:25;15.90;66.49
72952;HTU21D;61102;51.956;5.878;2022-09-19T07:14:59;16.01;66.51
72952;HTU21D;61102;51.956;5.878;2022-09-19T07:17:26;16.10;66.42
72952;HTU21D;61102;51.956;5.878;2022-09-19T07:19:54;16.20;66.57
72952;HTU21D;61102;51.956;5.878;2022-09-19T07:22:34;16.42;66.47
72952;HTU21D;61102;51.956;5.878;2022-09-19T07:25:28;16.63;65.98
72952;HTU21D;61102;51.956;5.878;2022-09-19T07:28:01;16.75;66.02
72952;HTU21D;61102;51.956;5.878;2022-09-19T07:30:28;16.85;65.89
72952;HTU21D;61102;51.956;5.878;2022-09-19T07:33:05;17.00;65.78
72952;HTU21D;61102;51.956;5.878;2022-09-19T07:35:35;17.09;65.62
72952;HTU21D;61102;51.956;5.878;2022-09-19T07:38:11;17.26;65.34
72952;HTU21D;61102;51.956;5.878;2022-09-19T07:41:04;17.53;65.44
72952;HTU21D;61102;51.956;5.878;2022-09-19T07:43:44;17.70;65.09
72952;HTU21D;61102;51.956;5.878;2022-09-19T07:46:33;17.83;64.77
72952;HTU21D;61102;51.956;5.878;2022-09-19T07:49:08;17.96;64.92
72952;HTU21D;61102;51.956;5.878;2022-09-19T07:51:51;18.00;64.57
72952;HTU21D;61102;51.956;5.878;2022-09-19T07:54:18;17.92;64.27
72952;HTU21D;61102;51.956;5.878;2022-09-19T07:56:44;17.81;64.20
72952;HTU21D;61102;51.956;5.878;2022-09-19T07:59:13;17.78;64.60
72952;HTU21D;61102;51.956;5.878;2022-09-19T08:01:48;17.82;64.17
72952;HTU21D;61102;51.956;5.878;2022-09-19T08:04:28;17.82;64.20
72952;HTU21D;61102;51.956;5.878;2022-09-19T08:06:57;17.82;64.11
72952;HTU21D;61102;51.956;5.878;2022-09-19T08:09:23;17.94;64.21
72952;HTU21D;61102;51.956;5.878;2022-09-19T08:11:50;18.14;64.43
72952;HTU21D;61102;51.956;5.878;2022-09-19T08:14:16;18.36;64.13
72952;HTU21D;61102;51.956;5.878;2022-09-19T08:16:43;18.54;63.90
72952;HTU21D;61102;51.956;5.878;2022-09-19T08:19:10;18.70;64.07
72952;HTU21D;61102;51.956;5.878;2022-09-19T08:21:37;18.84;63.11
72952;HTU21D;61102;51.956;5.878;2022-09-19T08:24:05;18.96;62.29
72952;HTU21D;61102;51.956;5.878;2022-09-19T08:26:32;19.09;61.60
72952;HTU21D;61102;51.956;5.878;2022-09-19T08:28:58;19.16;61.72
72952;HTU21D;61102;51.956;5.878;2022-09-19T08:31:29;19.29;61.88
72952;HTU21D;61102;51.956;5.878;2022-09-19T08:33:56;19.80;59.28
72952;HTU21D;61102;51.956;5.878;2022-09-19T08:36:22;19.36;60.10
72952;HTU21D;61102;51.956;5.878;2022-09-19T08:38:52;19.27;61.24
72952;HTU21D;61102;51.956;5.878;2022-09-19T08:47:04;19.63;59.93
72952;HTU21D;61102;51.956;5.878;2022-09-19T08:49:42;19.65;58.58
72952;HTU21D;61102;51.956;5.878;2022-09-19T08:54:54;19.80;60.76
72952;HTU21D;61102;51.956;5.878;2022-09-19T08:57:33;20.02;60.18
72952;HTU21D;61102;51.956;5.878;2022-09-19T09:00:09;20.18;59.86
72952;HTU21D;61102;51.956;5.878;2022-09-19T09:02:46;20.29;59.33
72952;HTU21D;61102;51.956;5.878;2022-09-19T09:05:23;20.25;56.92
72952;HTU21D;61102;51.956;5.878;2022-09-19T09:23:03;19.65;57.45
72952;HTU21D;61102;51.956;5.878;2022-09-19T09:25:48;19.45;58.31
72952;HTU21D;61102;51.956;5.878;2022-09-19T09:28:31;19.30;57.55
72952;HTU21D;61102;51.956;5.878;2022-09-19T09:31:36;19.18;57.08
72952;HTU21D;61102;51.956;5.878;2022-09-19T09:37:23;18.91;57.17
72952;HTU21D;61102;51.956;5.878;2022-09-19T09:40:04;18.71;57.20
72952;HTU21D;61102;51.956;5.878;2022-09-19T09:42:49;18.64;57.32
72952;HTU21D;61102;51.956;5.878;2022-09-19T09:48:09;18.83;57.04
72952;HTU21D;61102;51.956;5.878;2022-09-19T10:05:46;20.00;53.47
72952;HTU21D;61102;51.956;5.878;2022-09-19T10:08:33;20.05;53.92
72952;HTU21D;61102;51.956;5.878;2022-09-19T10:11:31;19.99;53.52
72952;HTU21D;61102;51.956;5.878;2022-09-19T10:14:00;19.94;53.94
72952;HTU21D;61102;51.956;5.878;2022-09-19T10:16:34;19.82;53.32
72952;HTU21D;61102;51.956;5.878;2022-09-19T10:19:30;19.76;52.80
72952;HTU21D;61102;51.956;5.878;2022-09-19T10:21:59;19.50;53.71
72952;HTU21D;61102;51.956;5.878;2022-09-19T10:24:39;19.84;53.01
72952;HTU21D;61102;51.956;5.878;2022-09-19T10:27:24;19.44;52.29
72952;HTU21D;61102;51.956;5.878;2022-09-19T10:29:57;19.50;52.69
72952;HTU21D;61102;51.956;5.878;2022-09-19T10:32:29;19.68;53.01
72952;HTU21D;61102;51.956;5.878;2022-09-19T10:35:36;20.06;52.35
72952;HTU21D;61102;51.956;5.878;2022-09-19T10:38:14;20.14;52.22
72952;HTU21D;61102;51.956;5.878;2022-09-19T10:46:06;19.21;51.31
72952;HTU21D;61102;51.956;5.878;2022-09-19T10:48:37;19.02;51.96
72952;HTU21D;61102;51.956;5.878;2022-09-19T10:51:06;18.94;52.67
72952;HTU21D;61102;51.956;5.878;2022-09-19T10:53:36;18.92;52.39
72952;HTU21D;61102;51.956;5.878;2022-09-19T10:56:08;18.88;52.53
72952;HTU21D;61102;51.956;5.878;2022-09-19T10:58:39;18.82;52.73
72952;HTU21D;61102;51.956;5.878;2022-09-19T11:01:23;18.87;53.23
72952;HTU21D;61102;51.956;5.878;2022-09-19T11:06:28;18.89;54.58
72952;HTU21D;61102;51.956;5.878;2022-09-19T11:08:55;18.99;54.83
72952;HTU21D;61102;51.956;5.878;2022-09-19T11:11:34;19.16;55.21
72952;HTU21D;61102;51.956;5.878;2022-09-19T11:20:11;19.45;53.97
72952;HTU21D;61102;51.956;5.878;2022-09-19T11:28:40;19.55;53.66
72952;HTU21D;61102;51.956;5.878;2022-09-19T11:34:01;19.86;54.91
72952;HTU21D;61102;51.956;5.878;2022-09-19T11:36:49;19.99;55.33
72952;HTU21D;61102;51.956;5.878;2022-09-19T11:42:15;20.43;56.41
72952;HTU21D;61102;51.956;5.878;2022-09-19T11:50:42;21.31;53.78
72952;HTU21D;61102;51.956;5.878;2022-09-19T12:07:29;21.85;48.53
72952;HTU21D;61102;51.956;5.878;2022-09-19T12:10:03;21.80;46.88
72952;HTU21D;61102;51.956;5.878;2022-09-19T12:12:33;21.79;48.44
72952;HTU21D;61102;51.956;5.878;2022-09-19T12:15:29;21.98;47.40
72952;HTU21D;61102;51.956;5.878;2022-09-19T12:20:41;22.83;46.42
72952;HTU21D;61102;51.956;5.878;2022-09-19T12:23:13;23.31;43.70
72952;HTU21D;61102;51.956;5.878;2022-09-19T12:26:02;23.00;45.93
72952;HTU21D;61102;51.956;5.878;2022-09-19T12:28:39;22.81;44.96
72952;HTU21D;61102;51.956;5.878;2022-09-19T12:31:11;22.43;42.80
72952;HTU21D;61102;51.956;5.878;2022-09-19T12:33:46;21.72;44.83
72952;HTU21D;61102;51.956;5.878;2022-09-19T12:36:25;21.01;47.38
72952;HTU21D;61102;51.956;5.878;2022-09-19T12:39:16;20.61;48.61
72952;HTU21D;61102;51.956;5.878;2022-09-19T12:41:50;20.70;48.35
72952;HTU21D;61102;51.956;5.878;2022-09-19T12:44:48;21.15;48.62
72952;HTU21D;61102;51.956;5.878;2022-09-19T12:47:41;21.16;47.62
72952;HTU21D;61102;51.956;5.878;2022-09-19T12:50:31;21.16;48.76
72952;HTU21D;61102;51.956;5.878;2022-09-19T12:55:49;21.08;47.99
72952;HTU21D;61102;51.956;5.878;2022-09-19T12:58:26;21.16;48.06
72952;HTU21D;61102;51.956;5.878;2022-09-19T13:01:16;21.32;48.27
72952;HTU21D;61102;51.956;5.878;2022-09-19T13:03:50;21.62;49.60
72952;HTU21D;61102;51.956;5.878;2022-09-19T13:06:21;22.80;47.36
72952;HTU21D;61102;51.956;5.878;2022-09-19T13:09:03;24.30;45.86
72952;HTU21D;61102;51.956;5.878;2022-09-19T13:11:48;25.42;43.92
72952;HTU21D;61102;51.956;5.878;2022-09-19T13:14:47;26.12;41.12
72952;HTU21D;61102;51.956;5.878;2022-09-19T13:17:15;26.82;40.80
72952;HTU21D;61102;51.956;5.878;2022-09-19T13:20:20;26.12;41.63
72952;HTU21D;61102;51.956;5.878;2022-09-19T13:23:13;25.00;40.91
72952;HTU21D;61102;51.956;5.878;2022-09-19T13:25:59;24.02;39.69
72952;HTU21D;61102;51.956;5.878;2022-09-19T13:28:46;23.14;41.93
72952;HTU21D;61102;51.956;5.878;2022-09-19T13:31:13;22.51;41.60
72952;HTU21D;61102;51.956;5.878;2022-09-19T13:33:51;22.04;42.93
72952;HTU21D;61102;51.956;5.878;2022-09-19T13:38:50;21.45;43.76
72952;HTU21D;61102;51.956;5.878;2022-09-19T13:41:26;21.37;44.69
72952;HTU21D;61102;51.956;5.878;2022-09-19T13:44:02;21.52;44.41
72952;HTU21D;61102;51.956;5.878;2022-09-19T13:46:42;22.05;43.93
72952;HTU21D;61102;51.956;5.878;2022-09-19T13:49:19;23.18;43.14
72952;HTU21D;61102;51.956;5.878;2022-09-19T13:52:00;23.71;42.51
72952;HTU21D;61102;51.956;5.878;2022-09-19T13:54:31;23.51;43.60
72952;HTU21D;61102;51.956;5.878;2022-09-19T13:59:49;24.85;41.78
72952;HTU21D;61102;51.956;5.878;2022-09-19T14:02:24;24.69;42.56
72952;HTU21D;61102;51.956;5.878;2022-09-19T14:04:57;23.89;44.43
72952;HTU21D;61102;51.956;5.878;2022-09-19T14:07:34;23.05;46.00
72952;HTU21D;61102;51.956;5.878;2022-09-19T14:18:01;21.24;48.08
72952;HTU21D;61102;51.956;5.878;2022-09-19T14:20:50;20.77;49.44
72952;HTU21D;61102;51.956;5.878;2022-09-19T14:34:43;20.22;49.26
72952;HTU21D;61102;51.956;5.878;2022-09-19T14:40:37;19.91;50.03
72952;HTU21D;61102;51.956;5.878;2022-09-19T14:57:00;19.81;50.47
72952;HTU21D;61102;51.956;5.878;2022-09-19T14:59:28;19.86;50.14
72952;HTU21D;61102;51.956;5.878;2022-09-19T15:05:03;20.18;49.27
72952;HTU21D;61102;51.956;5.878;2022-09-19T15:07:33;20.31;49.38
72952;HTU21D;61102;51.956;5.878;2022-09-19T15:10:01;20.45;49.62
72952;HTU21D;61102;51.956;5.878;2022-09-19T15:12:34;20.46;49.75
72952;HTU21D;61102;51.956;5.878;2022-09-19T15:15:03;20.44;50.00
72952;HTU21D;61102;51.956;5.878;2022-09-19T15:17:31;20.35;49.79
72952;HTU21D;61102;51.956;5.878;2022-09-19T15:20:11;19.95;51.60
72952;HTU21D;61102;51.956;5.878;2022-09-19T15:22:50;19.46;53.18
72952;HTU21D;61102;51.956;5.878;2022-09-19T15:25:29;19.08;54.05
72952;HTU21D;61102;51.956;5.878;2022-09-19T15:27:58;18.71;55.07
72952;HTU21D;61102;51.956;5.878;2022-09-19T15:30:29;18.51;55.91
72952;HTU21D;61102;51.956;5.878;2022-09-19T15:33:06;18.42;56.34
72952;HTU21D;61102;51.956;5.878;2022-09-19T15:35:35;18.35;56.64
72952;HTU21D;61102;51.956;5.878;2022-09-19T15:38:07;18.37;57.02
72952;HTU21D;61102;51.956;5.878;2022-09-19T15:40:34;18.33;57.03
72952;HTU21D;61102;51.956;5.878;2022-09-19T15:43:05;18.36;57.42
72952;HTU21D;61102;51.956;5.878;2022-09-19T15:45:38;18.39;57.45
72952;HTU21D;61102;51.956;5.878;2022-09-19T15:48:15;18.47;57.29
72952;HTU21D;61102;51.956;5.878;2022-09-19T15:50:46;18.49;57.37
72952;HTU21D;61102;51.956;5.878;2022-09-19T15:53:28;18.55;57.39
72952;HTU21D;61102;51.956;5.878;2022-09-19T15:56:12;18.63;57.52
72952;HTU21D;61102;51.956;5.878;2022-09-19T15:58:45;18.68;57.55
72952;HTU21D;61102;51.956;5.878;2022-09-19T16:01:23;18.71;57.43
72952;HTU21D;61102;51.956;5.878;2022-09-19T16:03:58;18.76;57.59
72952;HTU21D;61102;51.956;5.878;2022-09-19T16:06:34;18.81;57.67
72952;HTU21D;61102;51.956;5.878;2022-09-19T16:09:30;18.88;57.66
72952;HTU21D;61102;51.956;5.878;2022-09-19T16:11:56;18.87;57.49
72952;HTU21D;61102;51.956;5.878;2022-09-19T16:14:27;18.84;57.43
72952;HTU21D;61102;51.956;5.878;2022-09-19T16:16:54;18.74;56.79
72952;HTU21D;61102;51.956;5.878;2022-09-19T16:19:43;18.70;57.19
72952;HTU21D;61102;51.956;5.878;2022-09-19T16:22:21;18.67;57.15
72952;HTU21D;61102;51.956;5.878;2022-09-19T16:24:59;18.63;56.90
72952;HTU21D;61102;51.956;5.878;2022-09-19T16:27:29;18.54;57.10
72952;HTU21D;61102;51.956;5.878;2022-09-19T16:30:00;18.47;57.39
72952;HTU21D;61102;51.956;5.878;2022-09-19T16:32:27;18.42;57.43
72952;HTU21D;61102;51.956;5.878;2022-09-19T16:34:57;18.32;57.48
72952;HTU21D;61102;51.956;5.878;2022-09-19T16:37:38;18.28;57.72
72952;HTU21D;61102;51.956;5.878;2022-09-19T16:40:15;18.21;57.61
72952;HTU21D;61102;51.956;5.878;2022-09-19T16:42:45;18.21;57.61
72952;HTU21D;61102;51.956;5.878;2022-09-19T16:45:15;18.19;57.71
72952;HTU21D;61102;51.956;5.878;2022-09-19T16:47:44;18.20;57.77
72952;HTU21D;61102;51.956;5.878;2022-09-19T16:50:12;18.23;57.53
72952;HTU21D;61102;51.956;5.878;2022-09-19T16:52:44;18.23;57.84
72952;HTU21D;61102;51.956;5.878;2022-09-19T16:55:51;18.28;57.84
72952;HTU21D;61102;51.956;5.878;2022-09-19T16:58:14;18.32;57.58
72952;HTU21D;61102;51.956;5.878;2022-09-19T17:00:44;18.29;57.81
72952;HTU21D;61102;51.956;5.878;2022-09-19T17:03:11;18.32;57.63
72952;HTU21D;61102;51.956;5.878;2022-09-19T17:05:38;18.29;57.74
72952;HTU21D;61102;51.956;5.878;2022-09-19T17:08:04;18.30;57.72
72952;HTU21D;61102;51.956;5.878;2022-09-19T17:10:31;18.26;57.78
72952;HTU21D;61102;51.956;5.878;2022-09-19T17:12:58;18.26;57.78
72952;HTU21D;61102;51.956;5.878;2022-09-19T17:18:19;18.26;57.74
72952;HTU21D;61102;51.956;5.878;2022-09-19T17:20:46;18.25;58.02
72952;HTU21D;61102;51.956;5.878;2022-09-19T17:23:14;18.23;57.97
72952;HTU21D;61102;51.956;5.878;2022-09-19T17:25:49;18.21;58.25
72952;HTU21D;61102;51.956;5.878;2022-09-19T17:28:23;18.19;58.24
72952;HTU21D;61102;51.956;5.878;2022-09-19T17:30:51;18.21;58.29
72952;HTU21D;61102;51.956;5.878;2022-09-19T17:33:18;18.65;57.15
72952;HTU21D;61102;51.956;5.878;2022-09-19T17:35:45;18.29;57.80
72952;HTU21D;61102;51.956;5.878;2022-09-19T17:38:12;18.13;58.23
72952;HTU21D;61102;51.956;5.878;2022-09-19T17:40:43;18.51;57.26
72952;HTU21D;61102;51.956;5.878;2022-09-19T17:43:15;18.07;58.18
72952;HTU21D;61102;51.956;5.878;2022-09-19T17:45:43;17.85;58.51
72952;HTU21D;61102;51.956;5.878;2022-09-19T17:48:12;17.73;58.81
72952;HTU21D;61102;51.956;5.878;2022-09-19T17:50:40;17.65;58.87
72952;HTU21D;61102;51.956;5.878;2022-09-19T17:53:07;17.63;58.94
72952;HTU21D;61102;51.956;5.878;2022-09-19T17:55:34;17.66;58.94
72952;HTU21D;61102;51.956;5.878;2022-09-19T17:58:01;17.68;58.93
72952;HTU21D;61102;51.956;5.878;2022-09-19T18:00:30;17.68;58.98
72952;HTU21D;61102;51.956;5.878;2022-09-19T18:02:57;17.72;58.94
72952;HTU21D;61102;51.956;5.878;2022-09-19T18:05:42;17.73;58.99
72952;HTU21D;61102;51.956;5.878;2022-09-19T18:08:09;17.74;58.99
72952;HTU21D;61102;51.956;5.878;2022-09-19T18:10:36;17.74;59.01
72952;HTU21D;61102;51.956;5.878;2022-09-19T18:13:03;17.76;59.00
72952;HTU21D;61102;51.956;5.878;2022-09-19T18:15:31;17.79;59.06
72952;HTU21D;61102;51.956;5.878;2022-09-19T18:17:59;17.77;59.08
72952;HTU21D;61102;51.956;5.878;2022-09-19T18:20:25;17.77;59.09
72952;HTU21D;61102;51.956;5.878;2022-09-19T18:22:55;17.76;59.15
72952;HTU21D;61102;51.956;5.878;2022-09-19T18:25:21;18.18;58.00
72952;HTU21D;61102;51.956;5.878;2022-09-19T18:37:10;17.41;59.36
72952;HTU21D;61102;51.956;5.878;2022-09-19T18:39:36;17.32;59.52
72952;HTU21D;61102;51.956;5.878;2022-09-19T18:42:03;17.25;59.58
72952;HTU21D;61102;51.956;5.878;2022-09-19T18:44:29;17.20;59.57
72952;HTU21D;61102;51.956;5.878;2022-09-19T18:46:55;17.14;59.62
72952;HTU21D;61102;51.956;5.878;2022-09-19T18:49:21;17.07;59.70
72952;HTU21D;61102;51.956;5.878;2022-09-19T18:51:49;17.46;58.55
72952;HTU21D;61102;51.956;5.878;2022-09-19T18:54:15;17.09;59.15
72952;HTU21D;61102;51.956;5.878;2022-09-19T18:56:41;16.93;59.53
72952;HTU21D;61102;51.956;5.878;2022-09-19T18:59:08;16.84;59.70